Time;durP1;ratioP1;P1;durP2;ratioP2;P2;SDS_P1;SDS_P2;PMS_P1;PMS_P2;Temp;Humidity;BMP_temperature;BMP_pressure;BME280_temperature;BME280_humidity;BME280_pressure;Samples;Min_cycle;Max_cycle;Signal;HPM_P1;HPM_P2
2022/07/20 00:02:07;;;;;;;5.53;4.93;;;;;;;;;;5099048;28;24716;-53
2022/07/20 00:04:33;;;;;;;5.40;5.00;;;;;;;;;;5094421;28;24444;-45
2022/07/20 00:06:58;;;;;;;5.53;5.03;;;;;;;;;;5096443;28;24491;-45
2022/07/20 00:12:07;;;;;;;5.80;5.30;;;;;;;;;;5101205;28;24482;-45
2022/07/20 00:14:32;;;;;;;5.43;5.03;;;;;;;;;;5108070;28;24826;-45
2022/07/20 00:16:57;;;;;;;5.72;4.80;;;;;;;;;;5102445;28;24474;-44
2022/07/20 00:19:23;;;;;;;5.20;4.70;;;;;;;;;;5103920;27;24440;-46
2022/07/20 00:21:48;;;;;;;5.93;5.30;;;;;;;;;;5105923;28;24421;-45
2022/07/20 00:24:13;;;;;;;5.00;4.60;;;;;;;;;;5100486;28;24433;-45
2022/07/20 00:26:38;;;;;;;6.10;5.60;;;;;;;;;;5102300;27;24519;-46
2022/07/20 00:29:03;;;;;;;5.70;5.30;;;;;;;;;;5115329;27;24509;-47
2022/07/20 00:31:28;;;;;;;5.60;5.10;;;;;;;;;;5104363;28;24780;-45
2022/07/20 00:33:54;;;;;;;5.70;5.10;;;;;;;;;;5095327;28;24453;-45
2022/07/20 00:36:19;;;;;;;5.45;4.95;;;;;;;;;;5101324;28;24992;-45
2022/07/20 00:38:44;;;;;;;5.13;4.73;;;;;;;;;;5106359;28;24413;-45
2022/07/20 00:41:10;;;;;;;5.40;4.90;;;;;;;;;;5105766;28;24512;-45
2022/07/20 00:43:53;;;;;;;6.30;5.70;;;;;;;;;;5100716;28;24776;-46
2022/07/20 00:46:18;;;;;;;6.50;4.90;;;;;;;;;;5097002;28;25385;-45
2022/07/20 00:48:44;;;;;;;5.78;5.18;;;;;;;;;;5098133;27;24529;-45
2022/07/20 00:51:09;;;;;;;6.00;5.50;;;;;;;;;;5104746;28;24776;-45
2022/07/20 00:53:34;;;;;;;5.40;4.90;;;;;;;;;;5099975;28;24859;-45
2022/07/20 00:55:59;;;;;;;5.30;4.90;;;;;;;;;;5103795;28;24426;-45
2022/07/20 00:58:25;;;;;;;5.80;5.20;;;;;;;;;;5099716;28;24432;-45
2022/07/20 01:00:50;;;;;;;5.47;5.07;;;;;;;;;;5095758;28;24818;-45
2022/07/20 01:03:15;;;;;;;6.20;5.70;;;;;;;;;;5093767;28;25001;-45
2022/07/20 01:05:40;;;;;;;5.90;4.78;;;;;;;;;;5093849;28;24418;-45
2022/07/20 01:08:05;;;;;;;5.60;5.00;;;;;;;;;;5099007;27;25007;-45
2022/07/20 01:10:30;;;;;;;5.95;5.55;;;;;;;;;;5097911;28;24971;-45
2022/07/20 01:12:56;;;;;;;5.90;5.30;;;;;;;;;;5090501;28;25083;-45
2022/07/20 01:15:21;;;;;;;5.80;5.40;;;;;;;;;;5099493;27;24438;-50
2022/07/20 01:17:46;;;;;;;5.60;5.10;;;;;;;;;;5104932;27;24496;-45
2022/07/20 01:20:16;;;;;;;5.87;5.20;;;;;;;;;;5102912;28;24425;-44
2022/07/20 01:22:42;;;;;;;5.72;5.22;;;;;;;;;;5096848;28;24433;-45
2022/07/20 01:25:07;;;;;;;6.10;5.50;;;;;;;;;;5099143;27;24418;-45
2022/07/20 01:27:33;;;;;;;5.67;5.27;;;;;;;;;;5093337;28;24781;-45
2022/07/20 01:29:58;;;;;;;5.50;5.00;;;;;;;;;;5098890;28;24441;-45
2022/07/20 01:32:23;;;;;;;5.97;5.43;;;;;;;;;;5105625;28;24429;-46
2022/07/20 01:34:48;;;;;;;5.50;5.00;;;;;;;;;;5101869;28;24514;-45
2022/07/20 01:37:13;;;;;;;6.23;5.50;;;;;;;;;;5109891;27;24511;-45
2022/07/20 01:39:38;;;;;;;5.82;5.32;;;;;;;;;;5099618;28;24978;-44
2022/07/20 01:42:04;;;;;;;5.70;5.30;;;;;;;;;;5098366;28;24983;-45
2022/07/20 01:44:29;;;;;;;5.80;5.30;;;;;;;;;;5097133;27;24738;-44
2022/07/20 01:46:54;;;;;;;5.20;4.70;;;;;;;;;;5105997;28;24432;-44
2022/07/20 01:49:19;;;;;;;5.40;4.90;;;;;;;;;;5099825;28;24522;-45
2022/07/20 01:51:44;;;;;;;5.88;5.43;;;;;;;;;;5098474;27;24465;-44
2022/07/20 01:54:10;;;;;;;5.73;5.10;;;;;;;;;;5100893;28;24425;-45
2022/07/20 01:56:35;;;;;;;5.90;5.40;;;;;;;;;;5100206;27;25029;-45
2022/07/20 01:59:00;;;;;;;6.30;5.80;;;;;;;;;;5100393;28;24566;-45
2022/07/20 02:01:25;;;;;;;6.22;5.72;;;;;;;;;;5105341;28;24429;-46
2022/07/20 02:03:50;;;;;;;6.15;5.75;;;;;;;;;;5101429;27;24797;-45
2022/07/20 02:06:15;;;;;;;5.70;5.30;;;;;;;;;;5101019;28;24457;-45
2022/07/20 02:08:41;;;;;;;5.83;5.37;;;;;;;;;;5104231;28;24425;-46
2022/07/20 02:11:06;;;;;;;5.93;5.32;;;;;;;;;;5095248;28;24421;-45
2022/07/20 02:13:34;;;;;;;5.50;5.10;;;;;;;;;;5103913;28;24421;-46
2022/07/20 02:16:14;;;;;;;5.10;4.60;;;;;;;;;;5100902;28;24672;-45
2022/07/20 02:18:40;;;;;;;6.60;6.10;;;;;;;;;;5101741;28;24424;-46
2022/07/20 02:21:05;;;;;;;6.03;5.50;;;;;;;;;;5103656;27;24425;-46
2022/07/20 02:23:30;;;;;;;5.50;4.93;;;;;;;;;;5097509;28;24422;-46
2022/07/20 02:25:55;;;;;;;5.85;5.45;;;;;;;;;;5095003;28;24552;-46
2022/07/20 02:28:21;;;;;;;5.30;4.90;;;;;;;;;;5095580;28;24654;-46
2022/07/20 02:30:46;;;;;;;6.07;5.67;;;;;;;;;;5102431;28;24418;-46
2022/07/20 02:33:11;;;;;;;6.30;5.70;;;;;;;;;;5102017;27;24521;-46
2022/07/20 02:35:36;;;;;;;5.90;5.23;;;;;;;;;;5102716;27;24551;-45
2022/07/20 02:38:01;;;;;;;6.00;5.50;;;;;;;;;;5092123;28;24425;-45
2022/07/20 02:40:27;;;;;;;5.97;5.47;;;;;;;;;;5099692;28;24517;-46
2022/07/20 02:42:52;;;;;;;6.82;6.13;;;;;;;;;;5101658;28;24422;-46
2022/07/20 02:45:17;;;;;;;6.20;5.70;;;;;;;;;;5101518;28;24664;-46
2022/07/20 02:47:43;;;;;;;6.40;5.70;;;;;;;;;;5099824;28;24429;-45
2022/07/20 02:50:09;;;;;;;6.00;5.40;;;;;;;;;;5096645;28;24826;-47
2022/07/20 02:52:34;;;;;;;5.93;5.53;;;;;;;;;;5101754;28;25021;-46
2022/07/20 02:54:59;;;;;;;5.88;5.38;;;;;;;;;;5101139;28;24409;-45
2022/07/20 02:57:24;;;;;;;6.32;5.82;;;;;;;;;;5102492;28;24502;-46
2022/07/20 02:59:49;;;;;;;5.90;5.40;;;;;;;;;;5087617;28;24422;-46
2022/07/20 03:02:15;;;;;;;5.57;5.00;;;;;;;;;;5104656;27;24420;-46
2022/07/20 03:04:40;;;;;;;5.70;5.30;;;;;;;;;;5101345;28;24503;-46
2022/07/20 03:07:05;;;;;;;5.97;5.47;;;;;;;;;;5101549;27;24428;-46
2022/07/20 03:09:30;;;;;;;5.90;5.40;;;;;;;;;;5093474;27;24796;-46
2022/07/20 03:11:55;;;;;;;6.25;5.65;;;;;;;;;;5100790;27;24974;-46
2022/07/20 03:14:21;;;;;;;5.80;5.20;;;;;;;;;;5087983;28;24566;-46
2022/07/20 03:16:48;;;;;;;6.00;5.50;;;;;;;;;;5087119;28;24426;-46
2022/07/20 03:19:13;;;;;;;5.50;5.10;;;;;;;;;;5087273;28;24429;-46
2022/07/20 03:21:38;;;;;;;6.00;5.50;;;;;;;;;;5096017;28;24422;-46
2022/07/20 03:24:04;;;;;;;5.70;5.10;;;;;;;;;;5095880;28;24433;-46
2022/07/20 03:26:29;;;;;;;5.20;4.80;;;;;;;;;;5089996;28;24597;-46
2022/07/20 03:28:54;;;;;;;5.60;5.07;;;;;;;;;;5093840;28;24954;-46
2022/07/20 03:31:19;;;;;;;5.50;5.10;;;;;;;;;;5103315;28;25038;-46
2022/07/20 03:33:44;;;;;;;5.20;4.80;;;;;;;;;;5092204;28;24433;-46
2022/07/20 03:36:09;;;;;;;6.35;5.50;;;;;;;;;;5087889;28;24568;-45
2022/07/20 03:38:35;;;;;;;6.25;5.65;;;;;;;;;;5094289;28;24414;-46
2022/07/20 03:41:00;;;;;;;5.93;5.33;;;;;;;;;;5093259;28;24449;-46
2022/07/20 03:43:25;;;;;;;6.25;5.35;;;;;;;;;;5089904;28;24525;-46
2022/07/20 03:45:51;;;;;;;6.53;5.60;;;;;;;;;;5102386;28;24492;-46
2022/07/20 03:48:16;;;;;;;6.28;5.70;;;;;;;;;;5092863;28;24414;-45
2022/07/20 03:50:41;;;;;;;6.05;5.20;;;;;;;;;;5087352;28;24480;-46
2022/07/20 03:53:07;;;;;;;5.10;4.70;;;;;;;;;;5088487;28;24410;-46
2022/07/20 03:55:32;;;;;;;5.22;4.80;;;;;;;;;;5099075;28;25006;-45
2022/07/20 03:57:57;;;;;;;5.47;5.00;;;;;;;;;;5103201;28;24474;-46
2022/07/20 04:00:22;;;;;;;5.60;5.10;;;;;;;;;;5099681;28;24545;-46
2022/07/20 04:02:47;;;;;;;5.90;5.50;;;;;;;;;;5105904;28;24978;-46
2022/07/20 04:05:12;;;;;;;5.47;4.97;;;;;;;;;;5093866;28;24494;-46
2022/07/20 04:07:37;;;;;;;5.70;5.20;;;;;;;;;;5099419;28;24417;-45
2022/07/20 04:10:03;;;;;;;5.53;5.13;;;;;;;;;;5099956;28;25192;-46
2022/07/20 04:12:28;;;;;;;5.40;5.00;;;;;;;;;;5103986;28;24718;-46
2022/07/20 04:14:53;;;;;;;5.50;5.00;;;;;;;;;;5092297;28;24517;-46
2022/07/20 04:17:19;;;;;;;5.47;4.97;;;;;;;;;;5100018;28;24494;-46
2022/07/20 04:19:45;;;;;;;5.10;4.70;;;;;;;;;;5093246;28;24462;-46
2022/07/20 04:22:10;;;;;;;5.70;4.80;;;;;;;;;;5100709;28;24425;-46
2022/07/20 04:24:36;;;;;;;6.18;5.57;;;;;;;;;;5096514;28;24952;-46
2022/07/20 04:27:01;;;;;;;6.13;5.10;;;;;;;;;;5096236;28;24518;-45
2022/07/20 04:29:27;;;;;;;5.33;4.90;;;;;;;;;;5092584;28;24422;-46
2022/07/20 04:31:52;;;;;;;6.45;5.00;;;;;;;;;;5091531;28;24437;-46
2022/07/20 04:34:17;;;;;;;5.60;5.10;;;;;;;;;;5099138;28;24453;-45
2022/07/20 04:36:43;;;;;;;6.10;5.60;;;;;;;;;;5095768;28;24425;-45
2022/07/20 04:39:08;;;;;;;5.90;5.30;;;;;;;;;;5108396;28;24431;-45
2022/07/20 04:41:33;;;;;;;5.00;4.60;;;;;;;;;;5096009;28;25160;-45
2022/07/20 04:43:58;;;;;;;5.43;4.93;;;;;;;;;;5088883;28;24449;-45
2022/07/20 04:46:23;;;;;;;5.43;5.03;;;;;;;;;;5093675;28;24557;-46
2022/07/20 04:48:49;;;;;;;5.78;5.38;;;;;;;;;;5100047;28;24426;-46
2022/07/20 04:51:14;;;;;;;5.20;4.70;;;;;;;;;;5100309;28;24424;-45
2022/07/20 04:53:39;;;;;;;6.00;5.20;;;;;;;;;;5100459;28;25048;-45
2022/07/20 04:56:04;;;;;;;5.10;4.60;;;;;;;;;;5107442;27;24416;-46
2022/07/20 04:58:31;;;;;;;5.30;4.80;;;;;;;;;;5100409;28;24421;-46
2022/07/20 05:00:56;;;;;;;6.60;6.00;;;;;;;;;;5101771;28;25004;-46
2022/07/20 05:03:21;;;;;;;5.47;4.97;;;;;;;;;;5094186;28;24433;-46
2022/07/20 05:05:46;;;;;;;5.72;5.22;;;;;;;;;;5094894;28;24468;-46
2022/07/20 05:08:11;;;;;;;5.40;5.00;;;;;;;;;;5094027;28;25007;-46
2022/07/20 05:10:37;;;;;;;4.90;4.50;;;;;;;;;;5098286;27;24545;-45
2022/07/20 05:13:02;;;;;;;5.70;5.15;;;;;;;;;;5097890;28;24433;-46
2022/07/20 05:15:27;;;;;;;4.97;4.60;;;;;;;;;;5109646;27;24512;-46
2022/07/20 05:17:52;;;;;;;7.38;4.88;;;;;;;;;;5103422;27;24834;-46
2022/07/20 05:20:18;;;;;;;5.60;5.17;;;;;;;;;;5093858;28;25040;-46
2022/07/20 05:22:43;;;;;;;5.35;4.95;;;;;;;;;;5093600;28;24428;-47
2022/07/20 05:25:08;;;;;;;5.90;5.30;;;;;;;;;;5100746;28;25026;-46
2022/07/20 05:27:33;;;;;;;5.30;4.80;;;;;;;;;;5100184;28;24483;-46
2022/07/20 05:29:59;;;;;;;6.17;5.50;;;;;;;;;;5090199;28;24990;-46
2022/07/20 05:32:24;;;;;;;5.40;4.90;;;;;;;;;;5095799;27;24469;-46
2022/07/20 05:34:49;;;;;;;7.23;5.10;;;;;;;;;;5086224;28;24401;-46
2022/07/20 05:37:14;;;;;;;5.43;4.90;;;;;;;;;;5088020;28;24433;-47
2022/07/20 05:39:39;;;;;;;7.03;5.20;;;;;;;;;;5093812;28;24799;-47
2022/07/20 05:42:04;;;;;;;5.97;4.57;;;;;;;;;;5092893;28;24433;-46
2022/07/20 05:44:29;;;;;;;5.50;4.70;;;;;;;;;;5099477;28;24436;-47
2022/07/20 05:46:55;;;;;;;5.13;4.72;;;;;;;;;;5097371;27;24425;-47
2022/07/20 05:49:20;;;;;;;5.47;4.97;;;;;;;;;;5099344;27;24469;-47
2022/07/20 05:51:45;;;;;;;4.60;4.20;;;;;;;;;;5096877;28;24459;-47
2022/07/20 05:54:10;;;;;;;4.88;4.47;;;;;;;;;;5097112;28;25039;-47
2022/07/20 05:56:35;;;;;;;4.90;4.30;;;;;;;;;;5095701;27;24979;-45
2022/07/20 05:59:00;;;;;;;4.45;4.15;;;;;;;;;;5090118;27;24456;-46
2022/07/20 06:01:26;;;;;;;4.60;4.20;;;;;;;;;;5087384;27;24535;-45
2022/07/20 06:03:51;;;;;;;4.43;4.13;;;;;;;;;;5091346;28;24796;-46
2022/07/20 06:06:16;;;;;;;4.93;4.47;;;;;;;;;;5093473;28;24398;-46
2022/07/20 06:08:41;;;;;;;4.83;4.43;;;;;;;;;;5093460;28;24452;-47
2022/07/20 06:11:08;;;;;;;4.70;4.30;;;;;;;;;;5087486;27;24828;-46
2022/07/20 06:13:33;;;;;;;5.72;4.78;;;;;;;;;;5094940;27;24845;-47
2022/07/20 06:15:58;;;;;;;4.90;4.50;;;;;;;;;;5091104;28;25023;-48
2022/07/20 06:18:24;;;;;;;5.00;4.50;;;;;;;;;;5098173;27;25001;-47
2022/07/20 06:20:49;;;;;;;7.03;4.80;;;;;;;;;;5093975;28;24513;-47
2022/07/20 06:23:14;;;;;;;4.72;4.30;;;;;;;;;;5089924;28;24448;-46
2022/07/20 06:25:39;;;;;;;5.03;4.63;;;;;;;;;;5091024;28;24429;-46
2022/07/20 06:28:04;;;;;;;4.97;4.50;;;;;;;;;;5105246;28;25278;-45
2022/07/20 06:30:29;;;;;;;4.60;4.20;;;;;;;;;;5107209;28;24875;-45
2022/07/20 06:32:55;;;;;;;5.60;4.00;;;;;;;;;;5105026;28;25085;-46
2022/07/20 06:35:21;;;;;;;4.50;4.20;;;;;;;;;;5106270;28;24429;-45
2022/07/20 06:37:46;;;;;;;4.60;4.20;;;;;;;;;;5107547;28;24409;-46
2022/07/20 06:40:11;;;;;;;4.78;4.40;;;;;;;;;;5101839;27;25053;-46
2022/07/20 06:42:37;;;;;;;4.70;4.30;;;;;;;;;;5091782;28;24521;-47
2022/07/20 06:45:03;;;;;;;5.75;4.38;;;;;;;;;;5107181;28;24396;-46
2022/07/20 06:47:28;;;;;;;5.50;5.00;;;;;;;;;;5088269;28;24391;-46
2022/07/20 06:49:53;;;;;;;5.60;5.00;;;;;;;;;;5086519;28;24479;-45
2022/07/20 06:52:18;;;;;;;6.50;4.60;;;;;;;;;;5089421;28;24556;-46
2022/07/20 06:54:44;;;;;;;4.87;3.90;;;;;;;;;;5099846;28;24521;-45
2022/07/20 06:57:10;;;;;;;5.10;4.60;;;;;;;;;;5106919;28;24605;-46
2022/07/20 06:59:37;;;;;;;5.00;4.35;;;;;;;;;;5106730;28;24435;-46
2022/07/20 07:02:02;;;;;;;4.93;4.53;;;;;;;;;;5106875;28;24417;-46
2022/07/20 07:04:27;;;;;;;5.07;4.37;;;;;;;;;;5090141;28;24429;-46
2022/07/20 07:06:52;;;;;;;5.70;5.10;;;;;;;;;;5086555;28;24402;-46
2022/07/20 07:09:17;;;;;;;5.60;4.50;;;;;;;;;;5086336;28;24436;-45
2022/07/20 07:11:42;;;;;;;4.30;3.90;;;;;;;;;;5086317;28;24943;-45
2022/07/20 07:14:08;;;;;;;5.40;4.30;;;;;;;;;;5087410;28;24975;-47
2022/07/20 07:16:33;;;;;;;5.00;4.50;;;;;;;;;;5083535;28;24395;-46
2022/07/20 07:18:58;;;;;;;6.50;4.80;;;;;;;;;;5086593;28;24394;-46
2022/07/20 07:21:23;;;;;;;4.70;4.30;;;;;;;;;;5085944;28;24445;-46
2022/07/20 07:23:51;;;;;;;4.88;4.47;;;;;;;;;;5085718;28;24979;-47
2022/07/20 07:26:17;;;;;;;5.20;4.03;;;;;;;;;;5098124;28;25254;-46
2022/07/20 07:28:42;;;;;;;4.32;4.03;;;;;;;;;;5088609;28;24414;-47
2022/07/20 07:31:07;;;;;;;5.77;4.07;;;;;;;;;;5086028;28;24398;-45
2022/07/20 07:33:33;;;;;;;4.50;4.10;;;;;;;;;;5098379;28;24382;-46
2022/07/20 07:35:58;;;;;;;4.70;4.30;;;;;;;;;;5089498;28;24785;-46
2022/07/20 07:38:23;;;;;;;4.40;4.00;;;;;;;;;;5085761;28;24548;-46
2022/07/20 07:40:48;;;;;;;4.30;3.88;;;;;;;;;;5085906;28;24390;-46
2022/07/20 07:43:13;;;;;;;4.80;3.90;;;;;;;;;;5085711;28;24804;-46
2022/07/20 07:45:38;;;;;;;5.77;4.10;;;;;;;;;;5086010;28;24414;-47
2022/07/20 07:48:05;;;;;;;4.70;4.40;;;;;;;;;;5085804;28;24912;-46
2022/07/20 07:50:30;;;;;;;5.13;4.20;;;;;;;;;;5086144;28;24415;-48
2022/07/20 07:52:55;;;;;;;4.80;4.40;;;;;;;;;;5105950;28;24492;-46
2022/07/20 07:55:21;;;;;;;4.83;4.30;;;;;;;;;;5105177;28;24444;-46
2022/07/20 07:57:46;;;;;;;4.40;4.00;;;;;;;;;;5086143;28;24525;-47
2022/07/20 08:00:11;;;;;;;3.90;3.60;;;;;;;;;;5085654;28;24386;-47
2022/07/20 08:02:36;;;;;;;4.17;3.77;;;;;;;;;;5085517;28;24525;-47
2022/07/20 08:05:01;;;;;;;7.40;4.50;;;;;;;;;;5083548;28;24461;-46
2022/07/20 08:07:27;;;;;;;5.03;4.00;;;;;;;;;;5086144;28;24514;-48
2022/07/20 08:09:52;;;;;;;4.40;4.00;;;;;;;;;;5085704;28;24467;-46
2022/07/20 08:12:17;;;;;;;4.93;4.30;;;;;;;;;;5085454;28;24927;-47
2022/07/20 08:14:42;;;;;;;4.75;4.32;;;;;;;;;;5084947;28;24394;-46
2022/07/20 08:17:08;;;;;;;4.40;4.00;;;;;;;;;;5086190;28;24962;-46
2022/07/20 08:19:33;;;;;;;4.60;4.20;;;;;;;;;;5085568;28;24401;-46
2022/07/20 08:21:58;;;;;;;4.10;3.80;;;;;;;;;;5085751;28;24847;-47
2022/07/20 08:24:24;;;;;;;5.07;4.45;;;;;;;;;;5099572;28;24440;-46
2022/07/20 08:26:49;;;;;;;4.17;3.87;;;;;;;;;;5107702;28;24397;-45
2022/07/20 08:29:14;;;;;;;4.17;3.77;;;;;;;;;;5109911;28;24934;-45
2022/07/20 08:31:39;;;;;;;4.50;4.10;;;;;;;;;;5109720;28;24384;-46
2022/07/20 08:34:04;;;;;;;4.70;4.00;;;;;;;;;;5098602;28;24461;-47
2022/07/20 08:36:30;;;;;;;4.30;3.90;;;;;;;;;;5089395;28;24455;-46
2022/07/20 08:38:55;;;;;;;3.80;3.50;;;;;;;;;;5090432;28;24535;-46
2022/07/20 08:41:21;;;;;;;4.07;3.53;;;;;;;;;;5109611;28;24752;-47
2022/07/20 08:43:46;;;;;;;4.05;3.70;;;;;;;;;;5109398;28;25295;-46
2022/07/20 08:46:11;;;;;;;3.93;3.53;;;;;;;;;;5109192;28;24923;-46
2022/07/20 08:48:38;;;;;;;4.27;3.87;;;;;;;;;;5106971;28;24421;-45
2022/07/20 08:51:04;;;;;;;4.00;3.60;;;;;;;;;;5109539;28;24416;-45
2022/07/20 08:53:30;;;;;;;3.90;3.60;;;;;;;;;;5109331;28;24397;-45
2022/07/20 08:55:55;;;;;;;3.83;3.53;;;;;;;;;;5109169;28;24404;-46
2022/07/20 08:58:22;;;;;;;3.60;3.30;;;;;;;;;;5101379;28;21318;-45
2022/07/20 09:00:47;;;;;;;3.70;3.40;;;;;;;;;;5089018;28;24773;-45
2022/07/20 09:03:12;;;;;;;3.80;3.50;;;;;;;;;;5089087;28;25159;-46
2022/07/20 09:05:39;;;;;;;4.00;3.70;;;;;;;;;;5088920;28;24409;-46
2022/07/20 09:08:05;;;;;;;4.93;3.70;;;;;;;;;;5088807;28;24500;-45
2022/07/20 09:10:30;;;;;;;4.00;3.40;;;;;;;;;;5108797;28;25183;-47
2022/07/20 09:13:06;;;;;;;3.40;3.20;;;;;;;;;;5107223;28;24919;-46
2022/07/20 09:15:32;;;;;;;3.40;3.20;;;;;;;;;;5087884;28;24947;-46
2022/07/20 09:18:03;;;;;;;5.70;3.30;;;;;;;;;;5089106;28;24506;-47
2022/07/20 09:20:29;;;;;;;3.20;2.80;;;;;;;;;;5089139;28;25021;-47
2022/07/20 09:22:59;;;;;;;3.22;2.70;;;;;;;;;;5088488;28;25044;-48
2022/07/20 09:25:24;;;;;;;4.72;3.10;;;;;;;;;;5088510;28;24426;-47
2022/07/20 09:27:49;;;;;;;4.50;3.10;;;;;;;;;;5088100;28;24453;-46
2022/07/20 09:30:15;;;;;;;4.55;3.10;;;;;;;;;;5088348;28;24422;-45
2022/07/20 09:32:57;;;;;;;4.78;3.50;;;;;;;;;;5089872;28;24468;-46
2022/07/20 09:35:24;;;;;;;4.90;3.30;;;;;;;;;;5098709;28;24409;-46
2022/07/20 09:37:49;;;;;;;6.00;3.00;;;;;;;;;;5108556;28;24425;-46
2022/07/20 09:40:15;;;;;;;4.20;3.10;;;;;;;;;;5090799;28;24461;-46
2022/07/20 09:42:41;;;;;;;4.30;3.20;;;;;;;;;;5088140;28;24538;-45
2022/07/20 09:45:23;;;;;;;5.18;2.83;;;;;;;;;;5088342;28;24417;-46
2022/07/20 09:48:08;;;;;;;3.83;2.90;;;;;;;;;;5088987;28;24451;-46
2022/07/20 09:50:41;;;;;;;3.70;3.10;;;;;;;;;;5091850;28;24999;-46
2022/07/20 09:53:07;;;;;;;3.03;2.83;;;;;;;;;;5087745;28;24408;-47
2022/07/20 09:55:33;;;;;;;3.10;2.80;;;;;;;;;;5087446;28;24386;-47
2022/07/20 09:57:59;;;;;;;3.50;3.00;;;;;;;;;;5087694;28;24932;-47
2022/07/20 10:00:24;;;;;;;4.67;2.90;;;;;;;;;;5087649;28;24440;-46
2022/07/20 10:02:50;;;;;;;3.83;3.03;;;;;;;;;;5087209;28;24438;-46
2022/07/20 10:05:17;;;;;;;3.30;2.88;;;;;;;;;;5087227;28;24432;-46
2022/07/20 10:07:43;;;;;;;3.10;2.80;;;;;;;;;;5087110;28;24950;-47
2022/07/20 10:10:08;;;;;;;4.10;3.27;;;;;;;;;;5087400;28;24444;-46
2022/07/20 10:12:34;;;;;;;4.73;2.90;;;;;;;;;;5087272;28;24426;-45
2022/07/20 10:14:59;;;;;;;4.20;3.10;;;;;;;;;;5087451;28;24413;-47
2022/07/20 10:17:25;;;;;;;4.47;3.00;;;;;;;;;;5087433;28;24414;-46
2022/07/20 10:19:50;;;;;;;4.40;3.10;;;;;;;;;;5086784;28;24418;-47
2022/07/20 10:22:15;;;;;;;5.00;2.90;;;;;;;;;;5087251;28;24425;-47
2022/07/20 10:24:43;;;;;;;3.97;2.80;;;;;;;;;;5086799;28;24403;-47
2022/07/20 10:27:08;;;;;;;3.00;2.80;;;;;;;;;;5087171;28;24439;-47
2022/07/20 10:29:34;;;;;;;3.00;2.80;;;;;;;;;;5087024;28;24484;-46
2022/07/20 10:32:11;;;;;;;3.20;3.00;;;;;;;;;;5087068;28;24405;-47
2022/07/20 10:34:39;;;;;;;4.20;3.08;;;;;;;;;;5087262;28;24509;-47
2022/07/20 10:37:23;;;;;;;5.57;3.28;;;;;;;;;;5087244;28;24413;-45
2022/07/20 10:39:49;;;;;;;4.30;2.90;;;;;;;;;;5087154;28;24560;-45
2022/07/20 10:42:21;;;;;;;3.97;3.20;;;;;;;;;;5086983;28;24517;-46
2022/07/20 10:44:47;;;;;;;5.10;3.37;;;;;;;;;;5087334;28;24773;-45
2022/07/20 10:47:35;;;;;;;4.40;3.20;;;;;;;;;;5093990;28;24958;-46
2022/07/20 10:50:02;;;;;;;3.92;2.40;;;;;;;;;;5106287;28;24545;-47
2022/07/20 10:52:28;;;;;;;3.40;3.10;;;;;;;;;;5107456;28;24401;-46
2022/07/20 10:54:54;;;;;;;3.53;2.70;;;;;;;;;;5093846;28;24520;-46
2022/07/20 10:57:20;;;;;;;3.63;2.97;;;;;;;;;;5090476;28;24552;-46
2022/07/20 10:59:45;;;;;;;4.40;2.90;;;;;;;;;;5102901;28;24463;-46
2022/07/20 11:02:10;;;;;;;4.40;2.93;;;;;;;;;;5105917;28;24558;-47
2022/07/20 11:04:41;;;;;;;5.20;3.40;;;;;;;;;;5107509;28;24394;-47
2022/07/20 11:07:07;;;;;;;4.65;3.10;;;;;;;;;;5106991;28;24480;-48
2022/07/20 11:09:33;;;;;;;3.53;3.22;;;;;;;;;;5097136;28;25108;-47
2022/07/20 11:12:00;;;;;;;5.50;3.17;;;;;;;;;;5103522;28;24520;-47
2022/07/20 11:14:25;;;;;;;3.97;3.40;;;;;;;;;;5094029;28;24775;-46
2022/07/20 11:16:53;;;;;;;3.90;3.13;;;;;;;;;;5084094;28;25189;-46
2022/07/20 11:19:18;;;;;;;3.55;3.10;;;;;;;;;;5086596;28;24398;-46
2022/07/20 11:21:44;;;;;;;4.47;3.47;;;;;;;;;;5086030;28;24441;-46
2022/07/20 11:24:23;;;;;;;3.78;3.00;;;;;;;;;;5097939;28;24414;-46
2022/07/20 11:26:48;;;;;;;3.10;2.80;;;;;;;;;;5106203;28;24492;-46
2022/07/20 11:29:14;;;;;;;3.73;3.43;;;;;;;;;;5106747;28;24486;-46
2022/07/20 11:31:39;;;;;;;4.10;3.13;;;;;;;;;;5106614;28;24393;-46
2022/07/20 11:34:04;;;;;;;3.20;3.00;;;;;;;;;;5100883;28;24436;-46
2022/07/20 11:36:30;;;;;;;3.28;3.08;;;;;;;;;;5106254;28;24513;-47
2022/07/20 11:38:57;;;;;;;3.80;2.90;;;;;;;;;;5106042;28;24425;-47
2022/07/20 11:41:23;;;;;;;3.97;3.23;;;;;;;;;;5106137;28;24795;-47
2022/07/20 11:43:49;;;;;;;7.63;3.17;;;;;;;;;;5101349;28;24959;-47
2022/07/20 11:46:14;;;;;;;4.00;3.30;;;;;;;;;;5093744;28;24413;-47
2022/07/20 11:48:40;;;;;;;4.00;3.60;;;;;;;;;;5101660;28;24406;-46
2022/07/20 11:51:06;;;;;;;3.53;3.22;;;;;;;;;;5104329;28;24931;-46
2022/07/20 11:53:32;;;;;;;3.53;3.00;;;;;;;;;;5105756;28;24513;-46
2022/07/20 11:55:58;;;;;;;4.43;3.30;;;;;;;;;;5088508;28;24511;-46
2022/07/20 11:58:28;;;;;;;3.77;3.23;;;;;;;;;;5085719;28;24453;-46
2022/07/20 12:00:54;;;;;;;3.33;3.08;;;;;;;;;;5087759;28;24393;-47
2022/07/20 12:03:21;;;;;;;3.97;3.03;;;;;;;;;;5089641;28;24425;-47
2022/07/20 12:05:46;;;;;;;3.45;2.83;;;;;;;;;;5089809;28;24418;-47
2022/07/20 12:08:15;;;;;;;5.50;3.27;;;;;;;;;;5089439;28;24401;-46
2022/07/20 12:10:41;;;;;;;3.30;3.00;;;;;;;;;;5090033;28;20732;-46
2022/07/20 12:13:07;;;;;;;3.57;3.10;;;;;;;;;;5089395;28;24408;-47
2022/07/20 12:15:32;;;;;;;3.20;3.00;;;;;;;;;;5092019;28;24440;-47
2022/07/20 12:17:57;;;;;;;4.30;3.13;;;;;;;;;;5109813;28;24428;-46
2022/07/20 12:20:24;;;;;;;4.32;3.20;;;;;;;;;;5109908;28;24430;-47
2022/07/20 12:22:53;;;;;;;4.10;2.97;;;;;;;;;;5109407;28;24432;-46
2022/07/20 12:25:18;;;;;;;4.10;3.40;;;;;;;;;;5108714;28;24414;-45
2022/07/20 12:27:44;;;;;;;5.20;3.40;;;;;;;;;;5090125;28;24445;-47
2022/07/20 12:30:23;;;;;;;4.57;3.38;;;;;;;;;;5089634;28;24402;-46
2022/07/20 12:33:01;;;;;;;3.53;3.17;;;;;;;;;;5089025;28;24405;-46
2022/07/20 12:35:26;;;;;;;3.63;3.33;;;;;;;;;;5089619;28;24386;-44
2022/07/20 12:37:53;;;;;;;4.63;2.90;;;;;;;;;;5089037;28;24437;-46
2022/07/20 12:40:37;;;;;;;3.60;3.08;;;;;;;;;;5089195;28;25101;-46
2022/07/20 12:43:02;;;;;;;3.10;2.90;;;;;;;;;;5089219;28;25010;-46
2022/07/20 12:45:28;;;;;;;3.33;3.03;;;;;;;;;;5103413;28;24402;-46
2022/07/20 12:47:53;;;;;;;3.60;2.90;;;;;;;;;;5105996;28;24609;-47
2022/07/20 12:50:18;;;;;;;4.60;3.03;;;;;;;;;;5109379;28;24520;-44
2022/07/20 12:52:43;;;;;;;3.97;3.10;;;;;;;;;;5109638;28;24943;-47
2022/07/20 12:55:08;;;;;;;4.72;3.50;;;;;;;;;;5109105;28;24424;-46
2022/07/20 12:57:33;;;;;;;5.43;3.55;;;;;;;;;;5104822;28;24456;-46
2022/07/20 12:59:59;;;;;;;3.33;3.03;;;;;;;;;;5088817;28;24908;-47
2022/07/20 13:02:24;;;;;;;5.30;3.30;;;;;;;;;;5089001;28;24509;-47
2022/07/20 13:04:49;;;;;;;3.40;3.13;;;;;;;;;;5088921;28;24819;-47
2022/07/20 13:07:14;;;;;;;4.35;3.03;;;;;;;;;;5089053;28;25298;-47
2022/07/20 13:09:39;;;;;;;3.50;3.20;;;;;;;;;;5088376;28;24418;-47
2022/07/20 13:12:04;;;;;;;3.43;3.13;;;;;;;;;;5088089;28;24413;-47
2022/07/20 13:14:30;;;;;;;3.40;3.10;;;;;;;;;;5087570;28;24506;-47
2022/07/20 13:16:55;;;;;;;3.83;3.40;;;;;;;;;;5086029;28;24436;-47
2022/07/20 13:19:21;;;;;;;4.10;3.40;;;;;;;;;;5093454;28;24482;-47
2022/07/20 13:21:46;;;;;;;3.90;3.10;;;;;;;;;;5086636;28;25005;-47
2022/07/20 13:24:12;;;;;;;3.30;3.00;;;;;;;;;;5108324;28;24393;-47
2022/07/20 13:26:39;;;;;;;3.80;3.40;;;;;;;;;;5108527;28;24398;-47
2022/07/20 13:29:04;;;;;;;4.35;3.50;;;;;;;;;;5102302;28;24530;-46
2022/07/20 13:31:31;;;;;;;3.75;3.30;;;;;;;;;;5104457;28;24501;-48
2022/07/20 13:33:56;;;;;;;4.07;2.97;;;;;;;;;;5108467;28;24529;-47
2022/07/20 13:36:21;;;;;;;3.67;3.20;;;;;;;;;;5108517;28;24468;-47
2022/07/20 13:38:48;;;;;;;3.27;3.03;;;;;;;;;;5108927;28;24401;-47
2022/07/20 13:41:14;;;;;;;3.35;2.90;;;;;;;;;;5089125;28;24422;-48
2022/07/20 13:43:39;;;;;;;3.20;2.70;;;;;;;;;;5098188;28;24433;-47
2022/07/20 13:46:05;;;;;;;3.30;3.00;;;;;;;;;;5093607;28;24465;-46
2022/07/20 13:48:30;;;;;;;3.40;3.10;;;;;;;;;;5093110;28;24425;-47
2022/07/20 13:50:55;;;;;;;4.93;3.30;;;;;;;;;;5104365;28;24558;-47
2022/07/20 13:53:20;;;;;;;3.10;2.80;;;;;;;;;;5108126;28;24911;-47
2022/07/20 13:55:49;;;;;;;4.97;3.40;;;;;;;;;;5097693;28;24583;-45
2022/07/20 13:58:14;;;;;;;4.72;3.50;;;;;;;;;;5088188;28;24510;-46
2022/07/20 14:00:39;;;;;;;3.47;3.10;;;;;;;;;;5087555;28;24406;-46
2022/07/20 14:03:04;;;;;;;3.90;3.10;;;;;;;;;;5106637;27;24505;-47
2022/07/20 14:05:29;;;;;;;6.57;3.60;;;;;;;;;;5095557;28;25232;-47
2022/07/20 14:07:55;;;;;;;3.40;3.10;;;;;;;;;;5101486;27;24796;-47
2022/07/20 14:10:20;;;;;;;3.50;3.20;;;;;;;;;;5107619;27;24422;-46
2022/07/20 14:12:45;;;;;;;3.93;3.40;;;;;;;;;;5085214;28;25021;-47
2022/07/20 14:15:11;;;;;;;4.32;3.10;;;;;;;;;;5086931;28;24405;-47
2022/07/20 14:17:37;;;;;;;6.07;3.50;;;;;;;;;;5102853;28;24462;-47
2022/07/20 14:20:03;;;;;;;4.57;3.20;;;;;;;;;;5107491;28;24390;-47
2022/07/20 14:22:28;;;;;;;3.50;3.20;;;;;;;;;;5107201;28;24417;-46
2022/07/20 14:24:54;;;;;;;4.10;3.50;;;;;;;;;;5106096;28;24390;-46
2022/07/20 14:27:19;;;;;;;3.38;3.00;;;;;;;;;;5105417;28;24428;-46
2022/07/20 14:29:44;;;;;;;4.00;2.90;;;;;;;;;;5106224;28;24473;-46
2022/07/20 14:32:09;;;;;;;4.00;3.00;;;;;;;;;;5101789;28;24524;-46
2022/07/20 14:34:34;;;;;;;3.25;2.92;;;;;;;;;;5099489;28;24529;-46
2022/07/20 14:36:59;;;;;;;5.28;3.35;;;;;;;;;;5097869;27;24418;-46
2022/07/20 14:39:24;;;;;;;3.23;2.93;;;;;;;;;;5101155;28;24514;-46